Time;durP1;ratioP1;P1;durP2;ratioP2;P2;SDS_P1;SDS_P2;PMS_P1;PMS_P2;Temp;Humidity;BMP_temperature;BMP_pressure;BME280_temperature;BME280_humidity;BME280_pressure;Samples;Min_cycle;Max_cycle;Signal;HPM_P1;HPM_P2
2024/03/04 00:00:13;;;;;;;39.17;21.17;;;5.50;99.90;;;;;;5055509;28;21622;-63
2024/03/04 00:02:59;;;;;;;44.05;19.27;;;5.40;99.90;;;;;;5057015;28;20534;-63
2024/03/04 00:05:45;;;;;;;37.67;20.23;;;5.40;99.90;;;;;;5056949;28;20087;-63
2024/03/04 00:08:32;;;;;;;38.20;19.08;;;5.30;99.90;;;;;;5056685;28;20116;-63
2024/03/04 00:11:17;;;;;;;35.85;19.65;;;5.30;99.90;;;;;;5056514;28;20036;-63
2024/03/04 00:14:03;;;;;;;41.37;22.20;;;5.30;99.90;;;;;;5055540;28;20087;-63
2024/03/04 00:16:50;;;;;;;38.65;19.50;;;5.30;99.90;;;;;;5057462;28;20127;-63
2024/03/04 00:19:36;;;;;;;35.75;19.48;;;5.20;99.90;;;;;;5042579;28;20043;-63
2024/03/04 00:22:23;;;;;;;37.80;20.83;;;5.10;99.90;;;;;;5044355;28;20033;-63
2024/03/04 00:25:14;;;;;;;33.42;18.95;;;5.10;99.90;;;;;;5044426;28;20060;-63
2024/03/04 00:28:00;;;;;;;34.15;18.48;;;5.00;99.90;;;;;;5043862;28;20055;-63
2024/03/04 00:30:45;;;;;;;37.60;19.15;;;5.00;99.90;;;;;;5042494;28;20457;-63
2024/03/04 00:33:32;;;;;;;37.15;19.30;;;4.90;99.90;;;;;;5043518;28;20037;-63
2024/03/04 00:36:22;;;;;;;36.88;18.60;;;4.90;99.90;;;;;;5044647;28;20036;-63
2024/03/04 00:39:09;;;;;;;31.60;15.73;;;4.80;99.90;;;;;;5043908;28;20163;-63
2024/03/04 00:41:55;;;;;;;36.00;18.00;;;4.70;99.90;;;;;;5044599;28;20040;-63
2024/03/04 00:44:42;;;;;;;31.13;17.08;;;4.70;99.90;;;;;;5042729;28;20083;-63
2024/03/04 00:47:28;;;;;;;36.90;19.00;;;4.70;99.90;;;;;;5044435;28;20041;-63
2024/03/04 00:50:14;;;;;;;40.57;20.57;;;4.60;99.90;;;;;;5044405;28;20055;-63
2024/03/04 00:53:01;;;;;;;38.33;18.25;;;4.80;99.90;;;;;;5044692;28;20029;-64
2024/03/04 00:55:49;;;;;;;39.63;19.27;;;4.80;99.90;;;;;;5044933;28;20864;-63
2024/03/04 00:58:35;;;;;;;36.22;18.02;;;4.80;99.90;;;;;;5043149;28;20382;-63
2024/03/04 01:01:23;;;;;;;35.05;17.92;;;4.70;99.90;;;;;;5043427;28;20094;-63
2024/03/04 01:04:08;;;;;;;37.53;18.35;;;4.70;99.90;;;;;;5042661;28;20128;-63
2024/03/04 01:06:54;;;;;;;35.88;17.52;;;4.70;99.90;;;;;;5039310;28;20056;-63
2024/03/04 01:09:41;;;;;;;35.20;18.65;;;4.60;99.90;;;;;;5042053;28;20025;-63
2024/03/04 01:12:27;;;;;;;34.65;16.80;;;4.60;99.90;;;;;;5042712;28;20486;-64
2024/03/04 01:15:13;;;;;;;32.75;17.50;;;4.60;99.90;;;;;;5041856;28;20079;-63
2024/03/04 01:17:59;;;;;;;32.85;16.13;;;4.60;99.90;;;;;;5039162;28;20025;-64
2024/03/04 01:20:46;;;;;;;33.42;16.85;;;4.50;99.90;;;;;;5043073;28;20063;-63
2024/03/04 01:23:32;;;;;;;34.63;17.05;;;4.50;99.90;;;;;;5042035;28;20116;-63
2024/03/04 01:26:18;;;;;;;33.35;17.15;;;4.50;99.90;;;;;;5040422;28;20052;-63
2024/03/04 01:29:04;;;;;;;32.97;16.08;;;4.50;99.90;;;;;;5042477;28;20029;-63
2024/03/04 01:31:50;;;;;;;34.55;17.52;;;4.40;99.90;;;;;;5042383;28;20544;-63
2024/03/04 01:34:39;;;;;;;35.95;17.58;;;4.40;99.90;;;;;;5042537;28;20036;-64
2024/03/04 01:37:24;;;;;;;34.15;17.13;;;4.40;99.90;;;;;;5041006;28;20113;-63
2024/03/04 01:40:13;;;;;;;35.17;17.67;;;4.40;99.90;;;;;;5042400;28;20390;-63
2024/03/04 01:42:59;;;;;;;34.42;18.05;;;4.30;99.90;;;;;;5043251;28;20728;-63
2024/03/04 01:45:44;;;;;;;32.35;17.40;;;4.30;99.90;;;;;;5044920;28;20111;-63
2024/03/04 01:48:30;;;;;;;35.33;17.85;;;4.30;99.90;;;;;;5042749;28;20037;-63
2024/03/04 01:51:18;;;;;;;30.90;16.63;;;4.20;99.90;;;;;;5046564;22;20056;-63
2024/03/04 01:54:04;;;;;;;30.98;16.77;;;4.20;99.90;;;;;;5024086;28;20285;-63
2024/03/04 01:56:51;;;;;;;31.80;16.83;;;4.20;99.90;;;;;;5033036;28;20477;-63
2024/03/04 01:59:38;;;;;;;35.67;17.75;;;4.20;99.90;;;;;;5032749;28;20178;-63
2024/03/04 02:02:24;;;;;;;37.22;17.67;;;4.20;99.90;;;;;;5028456;28;20041;-63
2024/03/04 02:05:11;;;;;;;35.75;18.35;;;4.20;99.90;;;;;;5038659;28;20021;-63
2024/03/04 02:07:57;;;;;;;;;;;4.10;99.90;;;;;;5035328;28;20037;-63
2024/03/04 02:10:44;;;;;;;40.72;17.67;;;4.10;99.90;;;;;;5035837;28;19920;-63
2024/03/04 02:13:33;;;;;;;32.38;16.38;;;4.10;99.90;;;;;;5041366;28;20040;-63
2024/03/04 02:16:19;;;;;;;38.38;17.10;;;4.10;99.90;;;;;;5034806;28;20095;-63
2024/03/04 02:19:08;;;;;;;33.53;16.50;;;4.10;99.90;;;;;;5035683;28;20075;-63
2024/03/04 02:22:04;;;;;;;33.00;16.88;;;4.00;99.90;;;;;;5028474;28;20071;-63
2024/03/04 02:24:49;;;;;;;35.85;17.45;;;3.90;99.90;;;;;;5039161;28;20457;-63
2024/03/04 02:27:36;;;;;;;31.83;17.33;;;3.90;99.90;;;;;;5034227;28;20091;-63
2024/03/04 02:30:22;;;;;;;31.40;16.15;;;3.90;99.90;;;;;;5035147;28;20470;-63
2024/03/04 02:33:08;;;;;;;30.20;15.60;;;3.90;99.90;;;;;;5033687;28;20120;-63
2024/03/04 02:35:54;;;;;;;34.70;15.82;;;3.90;99.90;;;;;;5033708;28;20067;-63
2024/03/04 02:38:40;;;;;;;32.15;15.60;;;3.90;99.90;;;;;;5028157;28;20486;-63
2024/03/04 02:41:26;;;;;;;33.70;15.75;;;3.90;99.90;;;;;;5034597;28;20684;-63
2024/03/04 02:44:12;;;;;;;31.30;16.15;;;3.90;99.90;;;;;;5034662;28;20051;-63
2024/03/04 02:46:58;;;;;;;29.58;15.57;;;3.90;99.90;;;;;;5034165;28;20032;-63
2024/03/04 02:49:44;;;;;;;34.00;16.10;;;3.90;99.90;;;;;;5030364;28;20116;-63
2024/03/04 02:52:30;;;;;;;32.05;16.48;;;3.90;99.90;;;;;;5037528;28;20040;-63
2024/03/04 02:55:16;;;;;;;32.60;16.17;;;3.80;99.90;;;;;;5030862;28;20025;-63
2024/03/04 02:58:02;;;;;;;32.40;15.77;;;3.80;99.90;;;;;;5034517;28;20030;-63
2024/03/04 03:00:48;;;;;;;30.17;14.20;;;3.80;99.90;;;;;;5027700;28;20033;-64
2024/03/04 03:03:34;;;;;;;29.08;15.52;;;3.80;99.90;;;;;;5028030;28;20451;-63
2024/03/04 03:06:20;;;;;;;33.87;16.27;;;3.90;99.90;;;;;;5030132;28;20095;-63
2024/03/04 03:09:06;;;;;;;35.03;15.33;;;4.00;99.90;;;;;;5036661;28;20262;-63
2024/03/04 03:11:55;;;;;;;30.27;16.02;;;4.10;99.90;;;;;;5036719;28;20033;-63
2024/03/04 03:14:40;;;;;;;33.92;16.02;;;4.10;99.90;;;;;;5033841;28;20539;-63
2024/03/04 03:17:26;;;;;;;37.97;19.10;;;4.20;99.90;;;;;;5032439;28;20045;-63
2024/03/04 03:20:18;;;;;;;42.37;21.73;;;4.30;99.90;;;;;;5037787;28;20035;-63
2024/03/04 03:23:04;;;;;;;41.92;20.75;;;4.60;99.90;;;;;;5042244;28;20036;-63
2024/03/04 03:25:50;;;;;;;46.58;23.00;;;4.60;99.90;;;;;;5029268;28;20524;-63
2024/03/04 03:28:42;;;;;;;55.25;28.02;;;4.70;99.90;;;;;;5036844;28;20043;-63
2024/03/04 03:31:28;;;;;;;55.53;27.48;;;4.80;99.90;;;;;;5035978;28;20033;-63
2024/03/04 03:34:14;;;;;;;78.30;34.53;;;4.90;99.90;;;;;;5031237;28;20079;-63
2024/03/04 03:37:00;;;;;;;85.65;38.05;;;5.10;99.90;;;;;;5030868;28;20044;-63
2024/03/04 03:39:47;;;;;;;89.97;37.60;;;5.20;99.90;;;;;;5037306;28;20819;-63
2024/03/04 03:42:33;;;;;;;97.13;39.20;;;5.20;99.90;;;;;;5031570;28;20045;-63
2024/03/04 03:45:19;;;;;;;92.13;39.58;;;5.30;99.90;;;;;;5041247;28;20174;-63
2024/03/04 03:48:06;;;;;;;90.57;38.85;;;5.40;99.90;;;;;;5040223;28;20037;-63
2024/03/04 03:50:52;;;;;;;105.00;42.42;;;5.40;99.90;;;;;;5039825;28;20456;-63
2024/03/04 03:53:38;;;;;;;101.93;39.87;;;5.40;99.90;;;;;;5037902;28;20037;-63
2024/03/04 03:56:23;;;;;;;99.07;41.10;;;5.50;99.90;;;;;;5039479;28;20283;-63
2024/03/04 03:59:09;;;;;;;107.57;43.33;;;5.50;99.90;;;;;;5039800;28;20076;-63
2024/03/04 04:01:56;;;;;;;105.50;42.00;;;5.60;99.90;;;;;;5036922;28;20036;-63
2024/03/04 04:04:42;;;;;;;;;;;5.60;99.90;;;;;;5042867;28;20040;-63
2024/03/04 04:07:28;;;;;;;115.97;44.67;;;5.60;99.90;;;;;;5038496;28;19930;-63
2024/03/04 04:10:14;;;;;;;111.05;43.95;;;5.70;99.90;;;;;;5042703;28;20081;-63
2024/03/04 04:13:00;;;;;;;133.98;48.30;;;5.70;99.90;;;;;;5038370;28;20163;-62
2024/03/04 04:15:46;;;;;;;115.25;45.88;;;5.70;99.90;;;;;;5040342;28;20124;-63
2024/03/04 04:18:33;;;;;;;116.05;45.25;;;5.80;99.90;;;;;;5041646;28;20033;-63
2024/03/04 04:21:22;;;;;;;107.88;43.00;;;5.80;99.90;;;;;;5039135;28;20040;-63
2024/03/04 04:24:08;;;;;;;100.47;40.92;;;5.90;99.90;;;;;;5036857;28;20037;-63
2024/03/04 04:26:54;;;;;;;110.85;46.83;;;5.90;99.90;;;;;;5037916;28;20090;-63
2024/03/04 04:29:40;;;;;;;108.43;44.22;;;5.90;99.90;;;;;;5037431;28;20507;-63
2024/03/04 04:32:27;;;;;;;104.40;44.13;;;5.90;99.90;;;;;;5038838;28;20044;-63
2024/03/04 04:35:13;;;;;;;99.75;41.67;;;6.00;99.90;;;;;;5036045;28;20033;-63
2024/03/04 04:37:58;;;;;;;106.45;43.75;;;6.00;99.90;;;;;;5036958;28;20270;-63
2024/03/04 04:40:44;;;;;;;115.15;46.15;;;6.00;99.90;;;;;;5038926;28;20685;-63
2024/03/04 04:43:31;;;;;;;110.90;45.22;;;6.00;99.90;;;;;;5035848;28;20041;-63
2024/03/04 04:46:17;;;;;;;128.98;48.85;;;6.00;99.90;;;;;;5041632;28;20171;-63
2024/03/04 04:49:03;;;;;;;112.25;44.55;;;6.00;99.90;;;;;;5037169;28;20091;-63
2024/03/04 04:51:49;;;;;;;112.28;47.10;;;6.00;99.90;;;;;;5037081;28;20108;-63
2024/03/04 04:54:35;;;;;;;118.07;48.10;;;6.00;99.90;;;;;;5037076;28;20099;-63
2024/03/04 04:57:21;;;;;;;100.95;44.30;;;6.10;99.90;;;;;;5037762;28;20467;-63
2024/03/04 05:00:11;;;;;;;119.82;48.22;;;6.10;99.90;;;;;;5037485;28;20424;-63
2024/03/04 05:02:56;;;;;;;113.78;47.00;;;6.10;99.90;;;;;;5034871;28;20037;-63
2024/03/04 05:05:43;;;;;;;122.97;48.17;;;6.20;99.90;;;;;;5041629;28;20478;-63
2024/03/04 05:08:29;;;;;;;;;;;6.20;99.90;;;;;;5041059;28;20026;-63
2024/03/04 05:11:16;;;;;;;105.45;46.35;;;6.20;99.90;;;;;;5043388;28;19909;-63
2024/03/04 05:14:02;;;;;;;120.05;49.25;;;6.20;99.90;;;;;;5037992;28;20061;-63
2024/03/04 05:16:48;;;;;;;84.35;35.80;;;6.20;99.90;;;;;;5034824;28;20116;-63
2024/03/04 05:19:35;;;;;;;102.57;46.38;;;6.20;99.90;;;;;;5037165;28;20037;-63
2024/03/04 05:22:21;;;;;;;112.15;47.72;;;6.20;99.90;;;;;;5041389;28;20210;-63
2024/03/04 05:25:08;;;;;;;113.22;46.65;;;6.30;99.90;;;;;;5039334;28;20110;-63
2024/03/04 05:27:54;;;;;;;118.45;49.40;;;6.30;99.90;;;;;;5043009;28;20049;-63
2024/03/04 05:30:40;;;;;;;132.85;51.47;;;6.20;99.90;;;;;;5037647;28;20033;-63
2024/03/04 05:33:26;;;;;;;106.82;47.70;;;6.30;99.90;;;;;;5037212;28;20095;-63
2024/03/04 05:36:12;;;;;;;101.20;43.60;;;6.30;99.90;;;;;;5036251;28;20048;-63
2024/03/04 05:38:57;;;;;;;91.80;44.00;;;6.30;99.90;;;;;;5038685;28;20203;-63
2024/03/04 05:41:44;;;;;;;109.07;46.35;;;6.30;99.90;;;;;;5036458;28;20037;-63
2024/03/04 05:44:30;;;;;;;90.38;42.90;;;6.30;99.90;;;;;;5040638;28;20578;-63
2024/03/04 05:47:16;;;;;;;115.18;47.53;;;6.30;99.90;;;;;;5040550;28;20037;-63
2024/03/04 05:50:03;;;;;;;116.47;47.80;;;6.40;99.90;;;;;;5038545;28;20112;-63
2024/03/04 05:52:49;;;;;;;124.47;50.03;;;6.40;99.90;;;;;;5037435;28;20544;-63
2024/03/04 05:55:35;;;;;;;126.63;53.65;;;6.40;99.90;;;;;;5042120;28;20033;-63
2024/03/04 05:58:24;;;;;;;105.50;48.03;;;6.30;99.90;;;;;;5037356;28;20029;-63
2024/03/04 06:01:13;;;;;;;112.63;46.90;;;6.30;99.90;;;;;;5034958;28;20033;-63
2024/03/04 06:03:59;;;;;;;109.03;46.10;;;6.40;99.90;;;;;;5032279;28;20037;-63
2024/03/04 06:06:46;;;;;;;106.82;47.72;;;6.40;99.90;;;;;;5037515;28;20048;-63
2024/03/04 06:09:32;;;;;;;106.28;47.08;;;6.40;99.90;;;;;;5040018;28;20069;-63
2024/03/04 06:12:17;;;;;;;107.18;45.55;;;6.40;99.90;;;;;;5035687;28;20120;-63
2024/03/04 06:15:04;;;;;;;106.20;45.67;;;6.50;99.90;;;;;;5039998;28;20116;-63
2024/03/04 06:17:50;;;;;;;95.25;43.92;;;6.50;99.90;;;;;;5039790;28;20144;-63
2024/03/04 06:20:35;;;;;;;109.53;48.28;;;6.50;99.90;;;;;;5039397;28;20077;-63
2024/03/04 06:23:21;;;;;;;113.43;46.95;;;6.50;99.90;;;;;;5038466;28;20033;-63
2024/03/04 06:26:11;;;;;;;123.22;49.55;;;6.50;99.90;;;;;;5033436;28;20043;-63
2024/03/04 06:28:57;;;;;;;101.53;45.63;;;6.50;99.90;;;;;;5035848;28;20040;-63
2024/03/04 06:31:43;;;;;;;102.88;46.25;;;6.50;99.90;;;;;;5034858;28;20053;-63
2024/03/04 06:34:30;;;;;;;125.27;49.77;;;6.50;99.90;;;;;;5039825;28;20037;-63
2024/03/04 06:37:16;;;;;;;110.20;46.55;;;6.60;99.90;;;;;;5035464;28;20291;-63
2024/03/04 06:40:02;;;;;;;108.10;46.75;;;6.50;99.90;;;;;;5033629;28;20120;-63
2024/03/04 06:42:48;;;;;;;110.68;47.15;;;6.50;99.90;;;;;;5036066;28;20092;-63
2024/03/04 06:45:36;;;;;;;128.30;48.47;;;6.50;99.90;;;;;;5037060;28;20044;-63
2024/03/04 06:48:22;;;;;;;127.68;50.50;;;6.50;99.90;;;;;;5037667;28;20037;-63
2024/03/04 06:51:08;;;;;;;106.55;47.03;;;6.40;99.90;;;;;;5037933;28;20441;-63
2024/03/04 06:53:54;;;;;;;138.18;51.70;;;6.40;99.90;;;;;;5036138;28;20037;-63
2024/03/04 06:56:40;;;;;;;97.68;45.10;;;6.50;99.90;;;;;;5037105;28;20087;-63
2024/03/04 06:59:26;;;;;;;113.60;43.67;;;6.50;99.90;;;;;;5038400;28;20383;-63
2024/03/04 07:02:12;;;;;;;107.07;44.50;;;6.50;99.90;;;;;;5038408;28;20041;-63
2024/03/04 07:04:58;;;;;;;102.45;44.05;;;6.60;99.90;;;;;;5037003;28;20037;-63
2024/03/04 07:07:44;;;;;;;109.38;45.38;;;6.60;99.90;;;;;;5036095;28;20037;-62
2024/03/04 07:10:30;;;;;;;170.27;52.83;;;6.60;99.90;;;;;;5037534;28;20119;-64
2024/03/04 07:13:16;;;;;;;150.75;50.72;;;6.60;99.90;;;;;;5036447;28;20486;-65
2024/03/04 07:16:02;;;;;;;79.93;33.58;;;6.50;99.90;;;;;;5031570;28;20034;-63
2024/03/04 07:18:49;;;;;;;143.27;47.58;;;6.50;99.90;;;;;;5037129;28;20044;-64
2024/03/04 07:21:35;;;;;;;143.88;47.30;;;6.50;99.90;;;;;;5032955;28;20245;-62
2024/03/04 07:24:22;;;;;;;109.65;42.53;;;6.50;99.90;;;;;;5036386;28;20034;-62
2024/03/04 07:27:08;;;;;;;148.45;47.47;;;6.60;99.90;;;;;;5038531;28;20558;-60
2024/03/04 07:29:54;;;;;;;110.30;44.40;;;6.60;99.90;;;;;;5041873;28;20824;-61
2024/03/04 07:32:40;;;;;;;90.05;40.03;;;6.60;99.90;;;;;;5035732;28;20029;-61
2024/03/04 07:35:26;;;;;;;160.20;45.45;;;6.60;99.90;;;;;;5040185;28;20086;-61
2024/03/04 07:38:12;;;;;;;125.38;43.45;;;6.60;99.90;;;;;;5037930;28;20045;-61
2024/03/04 07:40:58;;;;;;;97.75;42.45;;;6.50;99.90;;;;;;5039355;28;20056;-62
2024/03/04 07:43:44;;;;;;;88.55;39.70;;;6.60;99.90;;;;;;5038111;28;20049;-61
2024/03/04 07:46:29;;;;;;;94.63;41.33;;;6.60;99.90;;;;;;5039942;28;20040;-62
2024/03/04 07:49:15;;;;;;;95.72;38.83;;;6.60;99.90;;;;;;5042353;28;20052;-62
2024/03/04 07:52:01;;;;;;;264.42;47.45;;;6.60;99.90;;;;;;5042403;28;20044;-62
2024/03/04 07:54:47;;;;;;;108.53;40.97;;;6.70;99.90;;;;;;5040884;28;20064;-62
2024/03/04 07:57:33;;;;;;;99.63;39.63;;;6.60;99.90;;;;;;5044280;22;20053;-65
2024/03/04 08:00:20;;;;;;;90.30;35.75;;;6.60;99.90;;;;;;5004692;28;20482;-65
2024/03/04 08:03:06;;;;;;;90.63;38.13;;;6.60;99.90;;;;;;5004724;28;20072;-64
2024/03/04 08:05:52;;;;;;;90.72;38.90;;;6.70;99.90;;;;;;5001915;28;20564;-64
2024/03/04 08:08:38;;;;;;;94.75;38.20;;;6.80;99.90;;;;;;5000182;28;20022;-64
2024/03/04 08:11:24;;;;;;;121.82;38.35;;;6.80;99.90;;;;;;5005620;28;20045;-69
2024/03/04 08:14:10;;;;;;;180.52;40.95;;;6.80;99.90;;;;;;5001788;28;20034;-64
2024/03/04 08:16:56;;;;;;;168.15;40.78;;;6.70;99.90;;;;;;5004242;28;20231;-64
2024/03/04 08:19:41;;;;;;;93.03;36.40;;;6.50;99.90;;;;;;5000246;28;20037;-64
2024/03/04 08:22:27;;;;;;;82.32;33.85;;;6.50;99.90;;;;;;4998665;28;20034;-64
2024/03/04 08:25:13;;;;;;;209.80;42.85;;;6.50;99.90;;;;;;5000546;28;20029;-64
2024/03/04 08:28:00;;;;;;;163.63;39.63;;;6.40;99.90;;;;;;5001701;28;20112;-64
2024/03/04 08:30:46;;;;;;;132.43;37.15;;;6.40;99.90;;;;;;5034322;28;20490;-63
2024/03/04 08:33:33;;;;;;;90.72;34.33;;;6.40;99.90;;;;;;5042051;28;20754;-64
2024/03/04 08:36:21;;;;;;;104.63;36.53;;;6.50;99.90;;;;;;5039594;28;20044;-64
2024/03/04 08:39:08;;;;;;;77.63;33.65;;;6.60;99.90;;;;;;5043983;28;20064;-64
2024/03/04 08:41:55;;;;;;;106.25;33.75;;;6.60;99.90;;;;;;5040520;28;20069;-64
2024/03/04 08:44:40;;;;;;;393.00;48.80;;;6.60;99.90;;;;;;5043897;28;20037;-64
2024/03/04 08:47:26;;;;;;;356.42;40.95;;;6.50;99.90;;;;;;5042148;28;20333;-65
2024/03/04 08:50:12;;;;;;;92.97;32.05;;;6.40;99.90;;;;;;5029700;28;20119;-64
2024/03/04 08:52:58;;;;;;;139.38;35.00;;;6.50;99.90;;;;;;5042993;28;20604;-64
2024/03/04 08:55:44;;;;;;;269.35;45.38;;;6.50;99.90;;;;;;5044717;28;20029;-64
2024/03/04 08:58:32;;;;;;;159.80;34.80;;;6.40;99.90;;;;;;5045187;28;20107;-64
2024/03/04 09:01:20;;;;;;;233.63;39.72;;;6.40;99.90;;;;;;5042563;28;20503;-63
2024/03/04 09:04:06;;;;;;;86.25;31.42;;;6.30;99.90;;;;;;5041970;28;20037;-64
2024/03/04 09:06:52;;;;;;;152.15;35.40;;;6.40;99.90;;;;;;5039150;28;20032;-64
2024/03/04 09:09:37;;;;;;;73.32;29.67;;;6.40;99.90;;;;;;5041512;28;20251;-64
2024/03/04 09:12:27;;;;;;;79.15;30.55;;;6.50;99.90;;;;;;5043867;28;20035;-64
2024/03/04 09:15:15;;;;;;;66.40;30.40;;;6.60;99.90;;;;;;5041530;28;20033;-63
2024/03/04 09:18:01;;;;;;;88.88;31.60;;;6.60;99.90;;;;;;5040908;28;20033;-64
2024/03/04 09:20:47;;;;;;;84.45;32.05;;;6.70;99.90;;;;;;5043993;28;20041;-64
2024/03/04 09:23:33;;;;;;;81.72;30.35;;;6.80;99.90;;;;;;5043789;28;20124;-64
2024/03/04 09:26:19;;;;;;;89.18;33.08;;;6.70;99.90;;;;;;5042572;28;20037;-64
2024/03/04 09:29:05;;;;;;;72.28;30.52;;;6.70;99.90;;;;;;5041090;28;20044;-63
2024/03/04 09:31:52;;;;;;;56.57;27.07;;;6.80;99.90;;;;;;5045870;28;20083;-64
2024/03/04 09:34:38;;;;;;;91.13;29.92;;;6.70;99.90;;;;;;5041704;28;20572;-63
2024/03/04 09:37:23;;;;;;;67.18;29.35;;;6.80;99.90;;;;;;5041814;28;20045;-64
2024/03/04 09:40:10;;;;;;;68.20;27.73;;;6.80;99.90;;;;;;5040942;28;20037;-63
2024/03/04 09:42:57;;;;;;;60.15;27.13;;;6.70;99.90;;;;;;5038686;28;20572;-63
2024/03/04 09:45:43;;;;;;;;;;;6.70;99.90;;;;;;5042028;28;20561;-63
2024/03/04 09:48:29;;;;;;;55.10;27.02;;;6.70;99.90;;;;;;5039987;28;20370;-63
2024/03/04 09:51:20;;;;;;;58.88;28.40;;;6.70;99.90;;;;;;5040463;28;20115;-64
2024/03/04 09:54:08;;;;;;;58.55;27.10;;;6.70;99.90;;;;;;5041387;28;20033;-64
2024/03/04 09:56:54;;;;;;;57.30;27.75;;;6.80;99.90;;;;;;5040446;28;20036;-64
2024/03/04 09:59:41;;;;;;;56.50;27.02;;;6.80;99.90;;;;;;5042686;28;20533;-64
2024/03/04 10:02:27;;;;;;;60.15;27.00;;;6.90;99.90;;;;;;5040632;28;20048;-64
2024/03/04 10:05:14;;;;;;;48.28;24.75;;;7.00;99.90;;;;;;5041819;28;20133;-64
2024/03/04 10:07:59;;;;;;;51.97;26.67;;;7.00;99.90;;;;;;5035042;28;20039;-64
2024/03/04 10:10:49;;;;;;;55.35;27.40;;;7.00;99.90;;;;;;5041023;28;20056;-64
2024/03/04 10:13:36;;;;;;;52.70;27.63;;;6.90;99.90;;;;;;5037716;28;20655;-63
2024/03/04 10:16:22;;;;;;;71.55;35.83;;;7.00;99.90;;;;;;5040551;28;20872;-63
2024/03/04 10:19:08;;;;;;;51.90;25.25;;;7.00;99.90;;;;;;5039234;28;20033;-63
2024/03/04 10:21:55;;;;;;;52.33;25.25;;;7.00;99.90;;;;;;5039306;28;20044;-63
2024/03/04 10:24:41;;;;;;;49.10;24.75;;;7.10;99.90;;;;;;5042546;28;20082;-63
2024/03/04 10:27:26;;;;;;;52.53;26.17;;;7.00;99.90;;;;;;5038777;28;20039;-63
2024/03/04 10:30:18;;;;;;;53.70;25.40;;;7.00;99.90;;;;;;5037647;28;20037;-64
2024/03/04 10:33:04;;;;;;;48.53;23.83;;;7.00;99.90;;;;;;5041310;28;20115;-63
2024/03/04 10:36:14;;;;;;;49.37;24.40;;;7.00;99.90;;;;;;5040019;28;20470;-63
2024/03/04 10:39:00;;;;;;;48.78;24.85;;;7.10;99.90;;;;;;5038598;28;20315;-64
2024/03/04 10:41:47;;;;;;;45.75;22.98;;;7.10;99.90;;;;;;5039348;28;20029;-64
2024/03/04 10:44:33;;;;;;;54.35;25.45;;;7.10;99.90;;;;;;5042189;28;20088;-64
2024/03/04 10:47:23;;;;;;;46.08;22.67;;;7.10;99.90;;;;;;5042974;28;20047;-64
2024/03/04 10:50:09;;;;;;;42.13;21.98;;;7.20;99.90;;;;;;5045872;28;20082;-64
2024/03/04 10:52:55;;;;;;;47.78;23.48;;;7.30;99.90;;;;;;5037851;28;20035;-64
2024/03/04 10:55:41;;;;;;;49.17;24.10;;;7.30;99.90;;;;;;5041274;28;20639;-64
2024/03/04 10:58:29;;;;;;;52.03;24.90;;;7.20;99.90;;;;;;5040170;28;20151;-64
2024/03/04 11:01:20;;;;;;;48.83;22.92;;;7.20;99.90;;;;;;5039047;28;20338;-64
2024/03/04 11:04:06;;;;;;;43.95;22.48;;;7.20;99.90;;;;;;5039836;28;20522;-66
2024/03/04 11:06:52;;;;;;;46.20;23.10;;;7.20;99.90;;;;;;5042175;28;20037;-66
2024/03/04 11:09:41;;;;;;;46.10;22.63;;;7.30;99.90;;;;;;5040339;28;20025;-67
2024/03/04 11:12:32;;;;;;;61.60;25.00;;;7.40;99.90;;;;;;5041314;28;21926;-63
2024/03/04 11:15:19;;;;;;;46.45;23.00;;;7.30;99.90;;;;;;5042155;28;20024;-63
2024/03/04 11:18:11;;;;;;;44.63;23.35;;;7.30;99.90;;;;;;5039242;28;20029;-63
2024/03/04 11:20:58;;;;;;;43.90;21.65;;;7.40;99.90;;;;;;5039989;28;20816;-63
2024/03/04 11:23:46;;;;;;;54.70;24.83;;;7.50;99.90;;;;;;5041289;28;20044;-62
2024/03/04 11:26:33;;;;;;;44.15;23.63;;;7.50;99.90;;;;;;5041313;28;20263;-63
2024/03/04 11:29:21;;;;;;;39.67;20.90;;;7.50;99.90;;;;;;5040375;28;20040;-63
2024/03/04 11:32:10;;;;;;;42.40;21.48;;;7.60;99.90;;;;;;5042666;28;20510;-63
2024/03/04 11:35:05;;;;;;;46.05;22.63;;;7.50;99.90;;;;;;5027125;28;20025;-63
2024/03/04 11:37:53;;;;;;;41.53;20.67;;;7.50;99.90;;;;;;5035117;28;20049;-63
2024/03/04 11:40:39;;;;;;;40.30;20.75;;;7.60;99.90;;;;;;5040120;28;20053;-63
2024/03/04 11:43:48;;;;;;;41.50;20.85;;;7.70;99.90;;;;;;5041109;28;20055;-63
2024/03/04 11:46:42;;;;;;;40.90;20.30;;;7.70;99.90;;;;;;5041395;28;20052;-63
2024/03/04 11:49:28;;;;;;;40.00;21.17;;;7.80;99.90;;;;;;5039778;28;20059;-63
2024/03/04 11:52:16;;;;;;;41.15;21.15;;;7.70;99.90;;;;;;5037361;28;20037;-63
2024/03/04 11:55:06;;;;;;;41.28;21.42;;;7.70;99.90;;;;;;5036501;28;20033;-63
2024/03/04 11:57:52;;;;;;;42.45;22.20;;;7.80;99.90;;;;;;5030289;28;20037;-63
2024/03/04 12:00:39;;;;;;;41.75;21.70;;;7.80;99.90;;;;;;5034479;28;20913;-63
2024/03/04 12:03:25;;;;;;;45.55;22.25;;;7.80;99.90;;;;;;5039298;28;20064;-63
2024/03/04 12:06:15;;;;;;;40.35;21.30;;;7.70;99.90;;;;;;5036045;28;20063;-63
2024/03/04 12:09:04;;;;;;;42.80;19.85;;;7.60;99.90;;;;;;5040136;28;20068;-63
2024/03/04 12:11:50;;;;;;;40.80;20.77;;;7.70;99.90;;;;;;5038810;28;20039;-63
2024/03/04 12:14:36;;;;;;;42.70;19.40;;;7.70;99.90;;;;;;5040147;28;20048;-62
2024/03/04 12:17:22;;;;;;;35.90;19.38;;;7.70;99.90;;;;;;5043162;28;20152;-63
2024/03/04 12:23:10;;;;;;;39.65;20.65;;;7.60;99.90;;;;;;5682185;23;21150;-66
2024/03/04 12:26:10;;;;;;;45.33;21.77;;;7.60;99.90;;;;;;4947950;28;20073;-63
2024/03/04 12:29:00;;;;;;;37.00;19.88;;;7.60;99.90;;;;;;4944002;28;20415;-63
2024/03/04 12:31:46;;;;;;;37.42;19.17;;;7.60;99.90;;;;;;4953770;28;20039;-64
2024/03/04 12:34:32;;;;;;;38.63;21.02;;;7.60;99.90;;;;;;4969030;28;20101;-64
2024/03/04 12:37:23;;;;;;;36.40;19.20;;;7.60;99.90;;;;;;4965612;28;20032;-63
2024/03/04 12:40:09;;;;;;;40.03;21.00;;;7.70;99.90;;;;;;4965460;28;20034;-63
2024/03/04 12:43:02;;;;;;;41.80;20.92;;;7.70;99.90;;;;;;4969175;28;20527;-63
2024/03/04 12:45:49;;;;;;;39.28;20.08;;;7.60;99.90;;;;;;4967844;28;20170;-63
2024/03/04 12:48:37;;;;;;;42.17;20.77;;;7.70;99.90;;;;;;4970712;28;20109;-63
2024/03/04 12:51:23;;;;;;;37.95;19.33;;;7.60;99.90;;;;;;4972997;28;20038;-63
2024/03/04 12:54:21;;;;;;;37.75;19.35;;;7.50;99.90;;;;;;4965610;28;20528;-63
2024/03/04 12:57:08;;;;;;;39.80;19.98;;;7.50;99.90;;;;;;4964882;28;20252;-63
2024/03/04 12:59:57;;;;;;;39.17;19.02;;;7.50;99.90;;;;;;4973235;28;20045;-63
2024/03/04 13:02:44;;;;;;;36.78;18.80;;;7.40;99.90;;;;;;4965298;28;20748;-63
2024/03/04 13:05:30;;;;;;;39.90;19.88;;;7.40;99.90;;;;;;4972225;28;20141;-63
2024/03/04 13:08:17;;;;;;;43.40;21.25;;;7.50;99.90;;;;;;4973757;28;20042;-63
2024/03/04 13:11:03;;;;;;;41.65;20.70;;;7.40;99.90;;;;;;4966118;28;20522;-63
2024/03/04 13:13:49;;;;;;;34.33;17.85;;;7.40;99.90;;;;;;4969449;28;20026;-63
2024/03/04 13:16:35;;;;;;;40.55;19.70;;;7.40;99.90;;;;;;4971378;28;20077;-63
2024/03/04 13:19:21;;;;;;;27.45;14.80;;;7.50;99.90;;;;;;4970940;28;20389;-63
2024/03/04 13:22:07;;;;;;;33.60;19.13;;;7.50;99.90;;;;;;4973158;28;20546;-60
2024/03/04 13:24:55;;;;;;;35.78;19.33;;;7.50;99.90;;;;;;4973695;28;20565;-60
2024/03/04 13:27:42;;;;;;;38.38;18.95;;;7.50;99.90;;;;;;4975999;28;20034;-60
2024/03/04 13:30:28;;;;;;;;;;;7.60;99.90;;;;;;4976662;28;20029;-62
2024/03/04 13:33:14;;;;;;;38.63;20.05;;;7.50;99.90;;;;;;4974002;28;19917;-64
2024/03/04 13:36:00;;;;;;;41.17;20.38;;;7.40;99.90;;;;;;4975958;28;20799;-63
2024/03/04 13:38:46;;;;;;;37.63;20.08;;;7.50;99.90;;;;;;4965035;28;20396;-63
2024/03/04 13:41:32;;;;;;;41.70;21.48;;;7.60;99.90;;;;;;4976485;28;20042;-63
2024/03/04 13:44:18;;;;;;;44.60;20.40;;;7.50;99.90;;;;;;4974098;28;20188;-63
2024/03/04 13:47:04;;;;;;;41.60;19.90;;;7.40;99.90;;;;;;4969167;28;20451;-63
2024/03/04 13:49:50;;;;;;;43.78;21.65;;;7.40;99.90;;;;;;4975839;28;20802;-63
2024/03/04 13:52:36;;;;;;;41.13;18.88;;;7.40;99.90;;;;;;4958521;28;20117;-63
2024/03/04 13:55:22;;;;;;;38.55;20.20;;;7.40;99.90;;;;;;4974143;28;20030;-63
2024/03/04 13:58:07;;;;;;;40.63;21.05;;;7.40;99.90;;;;;;4972072;28;20522;-63
2024/03/04 14:00:53;;;;;;;43.50;21.55;;;7.40;99.90;;;;;;4972801;28;20050;-63
2024/03/04 14:03:39;;;;;;;40.53;20.25;;;7.40;99.90;;;;;;4973271;28;20042;-63
2024/03/04 14:06:25;;;;;;;44.22;21.73;;;7.40;99.90;;;;;;4975645;28;20038;-63
2024/03/04 14:09:11;;;;;;;47.67;21.77;;;7.40;99.90;;;;;;4969465;28;20026;-63
2024/03/04 14:11:57;;;;;;;45.10;21.47;;;7.50;99.90;;;;;;4968192;28;20274;-61
2024/03/04 14:14:43;;;;;;;51.57;21.80;;;7.40;99.90;;;;;;4971602;28;20041;-62
2024/03/04 14:17:29;;;;;;;40.10;21.27;;;7.60;99.90;;;;;;4972447;28;20326;-63